sensor_id;sensor_type;location;lat;lon;timestamp;P1;durP1;ratioP1;P2;durP2;ratioP2
18265;SDS011;9259;48.194;16.322;2023-06-19T00:00:31;9.07;;;5.10;;
18265;SDS011;9259;48.194;16.322;2023-06-19T00:02:59;7.93;;;4.65;;
18265;SDS011;9259;48.194;16.322;2023-06-19T00:05:26;9.50;;;4.60;;
18265;SDS011;9259;48.194;16.322;2023-06-19T00:07:54;7.57;;;4.45;;
18265;SDS011;9259;48.194;16.322;2023-06-19T00:10:23;9.02;;;4.97;;
18265;SDS011;9259;48.194;16.322;2023-06-19T00:12:50;9.98;;;4.45;;
18265;SDS011;9259;48.194;16.322;2023-06-19T00:15:18;11.23;;;4.50;;
18265;SDS011;9259;48.194;16.322;2023-06-19T00:17:45;8.43;;;4.30;;
18265;SDS011;9259;48.194;16.322;2023-06-19T00:20:13;8.25;;;4.18;;
18265;SDS011;9259;48.194;16.322;2023-06-19T00:22:40;8.65;;;4.50;;
18265;SDS011;9259;48.194;16.322;2023-06-19T00:25:08;7.93;;;4.18;;
18265;SDS011;9259;48.194;16.322;2023-06-19T00:27:37;7.30;;;4.13;;
18265;SDS011;9259;48.194;16.322;2023-06-19T00:30:05;10.60;;;5.03;;
18265;SDS011;9259;48.194;16.322;2023-06-19T00:32:33;8.80;;;4.38;;
18265;SDS011;9259;48.194;16.322;2023-06-19T00:35:12;7.53;;;4.03;;
18265;SDS011;9259;48.194;16.322;2023-06-19T00:37:39;7.75;;;4.07;;
18265;SDS011;9259;48.194;16.322;2023-06-19T00:40:12;8.13;;;4.85;;
18265;SDS011;9259;48.194;16.322;2023-06-19T00:42:41;7.93;;;4.10;;
18265;SDS011;9259;48.194;16.322;2023-06-19T00:45:09;7.10;;;4.15;;
18265;SDS011;9259;48.194;16.322;2023-06-19T00:47:37;8.00;;;4.40;;
18265;SDS011;9259;48.194;16.322;2023-06-19T00:50:05;8.15;;;4.05;;
18265;SDS011;9259;48.194;16.322;2023-06-19T00:52:33;7.63;;;4.63;;
18265;SDS011;9259;48.194;16.322;2023-06-19T00:55:01;11.88;;;4.85;;
18265;SDS011;9259;48.194;16.322;2023-06-19T00:57:29;8.10;;;3.85;;
18265;SDS011;9259;48.194;16.322;2023-06-19T00:59:58;7.45;;;4.22;;
18265;SDS011;9259;48.194;16.322;2023-06-19T01:02:26;7.05;;;4.00;;
18265;SDS011;9259;48.194;16.322;2023-06-19T01:04:54;8.13;;;4.22;;
18265;SDS011;9259;48.194;16.322;2023-06-19T01:07:22;6.75;;;3.92;;
18265;SDS011;9259;48.194;16.322;2023-06-19T01:09:56;8.15;;;4.18;;
18265;SDS011;9259;48.194;16.322;2023-06-19T01:12:26;7.53;;;3.83;;
18265;SDS011;9259;48.194;16.322;2023-06-19T01:14:57;6.85;;;3.60;;
18265;SDS011;9259;48.194;16.322;2023-06-19T01:17:26;7.93;;;4.20;;
18265;SDS011;9259;48.194;16.322;2023-06-19T01:19:54;8.68;;;4.93;;
18265;SDS011;9259;48.194;16.322;2023-06-19T01:22:24;8.10;;;4.30;;
18265;SDS011;9259;48.194;16.322;2023-06-19T01:24:52;7.97;;;4.38;;
18265;SDS011;9259;48.194;16.322;2023-06-19T01:27:19;9.68;;;4.18;;
18265;SDS011;9259;48.194;16.322;2023-06-19T01:29:47;7.82;;;4.05;;
18265;SDS011;9259;48.194;16.322;2023-06-19T01:32:15;7.70;;;4.00;;
18265;SDS011;9259;48.194;16.322;2023-06-19T01:34:45;9.30;;;4.43;;
18265;SDS011;9259;48.194;16.322;2023-06-19T01:37:13;6.97;;;4.18;;
18265;SDS011;9259;48.194;16.322;2023-06-19T01:39:43;9.98;;;5.20;;
18265;SDS011;9259;48.194;16.322;2023-06-19T01:42:12;6.70;;;4.15;;
18265;SDS011;9259;48.194;16.322;2023-06-19T01:44:40;6.68;;;3.95;;
18265;SDS011;9259;48.194;16.322;2023-06-19T01:47:09;8.73;;;4.20;;
18265;SDS011;9259;48.194;16.322;2023-06-19T01:49:36;7.03;;;4.18;;
18265;SDS011;9259;48.194;16.322;2023-06-19T01:52:04;6.18;;;4.00;;
18265;SDS011;9259;48.194;16.322;2023-06-19T01:54:32;6.47;;;3.97;;
18265;SDS011;9259;48.194;16.322;2023-06-19T01:57:01;8.50;;;4.68;;
18265;SDS011;9259;48.194;16.322;2023-06-19T01:59:29;8.52;;;4.05;;
18265;SDS011;9259;48.194;16.322;2023-06-19T02:01:56;7.88;;;4.28;;
18265;SDS011;9259;48.194;16.322;2023-06-19T02:04:24;5.72;;;3.55;;
18265;SDS011;9259;48.194;16.322;2023-06-19T02:06:52;8.10;;;4.15;;
18265;SDS011;9259;48.194;16.322;2023-06-19T02:09:19;8.07;;;4.45;;
18265;SDS011;9259;48.194;16.322;2023-06-19T02:11:47;8.57;;;4.28;;
18265;SDS011;9259;48.194;16.322;2023-06-19T02:14:16;9.88;;;4.65;;
18265;SDS011;9259;48.194;16.322;2023-06-19T02:16:43;9.05;;;3.83;;
18265;SDS011;9259;48.194;16.322;2023-06-19T02:19:11;12.50;;;5.15;;
18265;SDS011;9259;48.194;16.322;2023-06-19T02:21:39;6.95;;;4.10;;
18265;SDS011;9259;48.194;16.322;2023-06-19T02:24:06;9.38;;;4.57;;
18265;SDS011;9259;48.194;16.322;2023-06-19T02:26:34;8.35;;;4.30;;
18265;SDS011;9259;48.194;16.322;2023-06-19T02:29:02;7.93;;;4.00;;
18265;SDS011;9259;48.194;16.322;2023-06-19T02:31:31;8.45;;;4.13;;
18265;SDS011;9259;48.194;16.322;2023-06-19T02:33:59;10.85;;;4.55;;
18265;SDS011;9259;48.194;16.322;2023-06-19T02:36:26;9.27;;;4.45;;
18265;SDS011;9259;48.194;16.322;2023-06-19T02:38:55;5.82;;;3.85;;
18265;SDS011;9259;48.194;16.322;2023-06-19T02:41:23;8.10;;;3.90;;
18265;SDS011;9259;48.194;16.322;2023-06-19T02:43:50;9.00;;;3.92;;
18265;SDS011;9259;48.194;16.322;2023-06-19T02:46:18;8.95;;;4.40;;
18265;SDS011;9259;48.194;16.322;2023-06-19T02:48:47;7.88;;;4.75;;
18265;SDS011;9259;48.194;16.322;2023-06-19T02:51:14;6.45;;;4.03;;
18265;SDS011;9259;48.194;16.322;2023-06-19T02:53:42;8.18;;;4.05;;
18265;SDS011;9259;48.194;16.322;2023-06-19T02:56:10;7.85;;;4.25;;
18265;SDS011;9259;48.194;16.322;2023-06-19T02:58:38;10.73;;;4.50;;
18265;SDS011;9259;48.194;16.322;2023-06-19T03:01:07;9.45;;;4.32;;
18265;SDS011;9259;48.194;16.322;2023-06-19T03:03:34;9.15;;;4.32;;
18265;SDS011;9259;48.194;16.322;2023-06-19T03:06:05;7.53;;;4.53;;
18265;SDS011;9259;48.194;16.322;2023-06-19T03:08:33;7.57;;;3.60;;
18265;SDS011;9259;48.194;16.322;2023-06-19T03:11:00;7.25;;;4.05;;
18265;SDS011;9259;48.194;16.322;2023-06-19T03:13:29;6.88;;;4.00;;
18265;SDS011;9259;48.194;16.322;2023-06-19T03:15:57;8.73;;;4.57;;
18265;SDS011;9259;48.194;16.322;2023-06-19T03:18:25;10.18;;;4.60;;
18265;SDS011;9259;48.194;16.322;2023-06-19T03:20:52;9.85;;;4.70;;
18265;SDS011;9259;48.194;16.322;2023-06-19T03:23:21;11.88;;;4.57;;
18265;SDS011;9259;48.194;16.322;2023-06-19T03:25:49;8.57;;;3.95;;
18265;SDS011;9259;48.194;16.322;2023-06-19T03:28:16;8.18;;;4.25;;
18265;SDS011;9259;48.194;16.322;2023-06-19T03:30:44;12.85;;;4.18;;
18265;SDS011;9259;48.194;16.322;2023-06-19T03:33:12;7.45;;;4.35;;
18265;SDS011;9259;48.194;16.322;2023-06-19T03:35:39;9.55;;;4.22;;
18265;SDS011;9259;48.194;16.322;2023-06-19T03:38:07;9.63;;;5.10;;
18265;SDS011;9259;48.194;16.322;2023-06-19T03:40:36;8.93;;;4.22;;
18265;SDS011;9259;48.194;16.322;2023-06-19T03:43:04;7.32;;;4.30;;
18265;SDS011;9259;48.194;16.322;2023-06-19T03:45:31;8.65;;;4.53;;
18265;SDS011;9259;48.194;16.322;2023-06-19T03:47:59;9.63;;;4.45;;
18265;SDS011;9259;48.194;16.322;2023-06-19T03:50:26;7.85;;;4.45;;
18265;SDS011;9259;48.194;16.322;2023-06-19T03:52:54;8.57;;;4.70;;
18265;SDS011;9259;48.194;16.322;2023-06-19T03:55:22;9.07;;;4.45;;
18265;SDS011;9259;48.194;16.322;2023-06-19T03:57:50;9.10;;;5.03;;
18265;SDS011;9259;48.194;16.322;2023-06-19T04:00:19;8.82;;;4.90;;
18265;SDS011;9259;48.194;16.322;2023-06-19T04:02:47;7.55;;;4.25;;
18265;SDS011;9259;48.194;16.322;2023-06-19T04:05:15;9.80;;;4.70;;
18265;SDS011;9259;48.194;16.322;2023-06-19T04:07:43;13.32;;;4.90;;
18265;SDS011;9259;48.194;16.322;2023-06-19T04:10:10;8.20;;;4.53;;
18265;SDS011;9259;48.194;16.322;2023-06-19T04:12:38;9.60;;;4.07;;
18265;SDS011;9259;48.194;16.322;2023-06-19T04:15:08;9.02;;;4.28;;
18265;SDS011;9259;48.194;16.322;2023-06-19T04:17:36;10.50;;;4.82;;
18265;SDS011;9259;48.194;16.322;2023-06-19T04:20:04;8.48;;;4.55;;
18265;SDS011;9259;48.194;16.322;2023-06-19T04:22:36;8.18;;;4.50;;
18265;SDS011;9259;48.194;16.322;2023-06-19T04:25:05;8.30;;;4.80;;
18265;SDS011;9259;48.194;16.322;2023-06-19T04:27:33;9.40;;;4.85;;
18265;SDS011;9259;48.194;16.322;2023-06-19T04:30:02;8.23;;;4.22;;
18265;SDS011;9259;48.194;16.322;2023-06-19T04:32:31;9.65;;;4.47;;
18265;SDS011;9259;48.194;16.322;2023-06-19T04:35:00;7.03;;;4.32;;
18265;SDS011;9259;48.194;16.322;2023-06-19T04:37:27;11.18;;;4.63;;
18265;SDS011;9259;48.194;16.322;2023-06-19T04:39:55;10.27;;;4.32;;
18265;SDS011;9259;48.194;16.322;2023-06-19T04:42:23;6.95;;;4.32;;
18265;SDS011;9259;48.194;16.322;2023-06-19T04:44:51;10.75;;;4.88;;
18265;SDS011;9259;48.194;16.322;2023-06-19T04:47:22;10.52;;;4.82;;
18265;SDS011;9259;48.194;16.322;2023-06-19T04:49:51;9.80;;;4.55;;
18265;SDS011;9259;48.194;16.322;2023-06-19T04:52:18;12.15;;;5.57;;
18265;SDS011;9259;48.194;16.322;2023-06-19T04:54:46;9.02;;;5.05;;
18265;SDS011;9259;48.194;16.322;2023-06-19T04:57:15;12.25;;;4.57;;
18265;SDS011;9259;48.194;16.322;2023-06-19T04:59:43;6.72;;;4.10;;
18265;SDS011;9259;48.194;16.322;2023-06-19T05:02:10;7.63;;;4.43;;
18265;SDS011;9259;48.194;16.322;2023-06-19T05:04:38;7.82;;;4.68;;
18265;SDS011;9259;48.194;16.322;2023-06-19T05:07:09;14.10;;;4.65;;
18265;SDS011;9259;48.194;16.322;2023-06-19T05:09:38;9.40;;;4.32;;
18265;SDS011;9259;48.194;16.322;2023-06-19T05:12:06;8.52;;;4.25;;
18265;SDS011;9259;48.194;16.322;2023-06-19T05:14:34;10.48;;;4.50;;
18265;SDS011;9259;48.194;16.322;2023-06-19T05:17:01;9.55;;;4.72;;
18265;SDS011;9259;48.194;16.322;2023-06-19T05:19:29;9.52;;;5.07;;
18265;SDS011;9259;48.194;16.322;2023-06-19T05:21:57;10.98;;;5.40;;
18265;SDS011;9259;48.194;16.322;2023-06-19T05:24:26;11.25;;;5.45;;
18265;SDS011;9259;48.194;16.322;2023-06-19T05:26:53;12.00;;;4.63;;
18265;SDS011;9259;48.194;16.322;2023-06-19T05:29:21;10.32;;;5.45;;
18265;SDS011;9259;48.194;16.322;2023-06-19T05:31:48;8.90;;;5.13;;
18265;SDS011;9259;48.194;16.322;2023-06-19T05:34:16;15.55;;;5.38;;
18265;SDS011;9259;48.194;16.322;2023-06-19T05:36:44;10.77;;;4.78;;
18265;SDS011;9259;48.194;16.322;2023-06-19T05:39:12;11.23;;;6.07;;
18265;SDS011;9259;48.194;16.322;2023-06-19T05:41:41;9.00;;;5.53;;
18265;SDS011;9259;48.194;16.322;2023-06-19T05:44:11;10.40;;;5.95;;
18265;SDS011;9259;48.194;16.322;2023-06-19T05:46:40;11.85;;;6.25;;
18265;SDS011;9259;48.194;16.322;2023-06-19T05:49:08;11.60;;;5.60;;
18265;SDS011;9259;48.194;16.322;2023-06-19T05:51:35;11.50;;;6.25;;
18265;SDS011;9259;48.194;16.322;2023-06-19T05:54:03;10.82;;;6.10;;
18265;SDS011;9259;48.194;16.322;2023-06-19T05:56:31;13.93;;;6.90;;
18265;SDS011;9259;48.194;16.322;2023-06-19T05:59:00;10.50;;;6.35;;
18265;SDS011;9259;48.194;16.322;2023-06-19T06:01:28;12.57;;;6.55;;
18265;SDS011;9259;48.194;16.322;2023-06-19T06:03:56;12.73;;;6.88;;
18265;SDS011;9259;48.194;16.322;2023-06-19T06:06:24;12.20;;;6.47;;
18265;SDS011;9259;48.194;16.322;2023-06-19T06:08:52;12.07;;;6.80;;
18265;SDS011;9259;48.194;16.322;2023-06-19T06:11:20;14.60;;;6.70;;
18265;SDS011;9259;48.194;16.322;2023-06-19T06:13:48;11.65;;;6.80;;
18265;SDS011;9259;48.194;16.322;2023-06-19T06:16:17;12.30;;;6.65;;
18265;SDS011;9259;48.194;16.322;2023-06-19T06:18:44;12.32;;;7.10;;
18265;SDS011;9259;48.194;16.322;2023-06-19T06:21:12;11.52;;;6.05;;
18265;SDS011;9259;48.194;16.322;2023-06-19T06:23:40;12.77;;;6.55;;
18265;SDS011;9259;48.194;16.322;2023-06-19T06:26:10;12.77;;;6.38;;
18265;SDS011;9259;48.194;16.322;2023-06-19T06:28:38;10.13;;;6.25;;
18265;SDS011;9259;48.194;16.322;2023-06-19T06:31:05;11.20;;;5.75;;
18265;SDS011;9259;48.194;16.322;2023-06-19T06:33:34;12.13;;;6.10;;
18265;SDS011;9259;48.194;16.322;2023-06-19T06:36:02;9.85;;;5.60;;
18265;SDS011;9259;48.194;16.322;2023-06-19T06:38:34;7.70;;;5.00;;
18265;SDS011;9259;48.194;16.322;2023-06-19T06:41:02;10.77;;;5.60;;
18265;SDS011;9259;48.194;16.322;2023-06-19T06:43:29;9.75;;;5.13;;
18265;SDS011;9259;48.194;16.322;2023-06-19T06:45:57;9.98;;;5.03;;
18265;SDS011;9259;48.194;16.322;2023-06-19T06:48:25;8.52;;;4.88;;
18265;SDS011;9259;48.194;16.322;2023-06-19T06:50:54;13.00;;;5.63;;
18265;SDS011;9259;48.194;16.322;2023-06-19T06:53:26;7.95;;;4.68;;
18265;SDS011;9259;48.194;16.322;2023-06-19T06:55:54;9.95;;;5.25;;
18265;SDS011;9259;48.194;16.322;2023-06-19T06:58:22;9.18;;;5.47;;
18265;SDS011;9259;48.194;16.322;2023-06-19T07:00:49;6.57;;;4.72;;
18265;SDS011;9259;48.194;16.322;2023-06-19T07:03:17;8.60;;;5.40;;
18265;SDS011;9259;48.194;16.322;2023-06-19T07:05:45;10.05;;;5.57;;
18265;SDS011;9259;48.194;16.322;2023-06-19T07:08:14;10.18;;;5.03;;
18265;SDS011;9259;48.194;16.322;2023-06-19T07:10:41;6.45;;;4.40;;
18265;SDS011;9259;48.194;16.322;2023-06-19T07:13:09;8.88;;;5.10;;
18265;SDS011;9259;48.194;16.322;2023-06-19T07:15:37;8.27;;;5.20;;
18265;SDS011;9259;48.194;16.322;2023-06-19T07:18:04;8.13;;;4.90;;
18265;SDS011;9259;48.194;16.322;2023-06-19T07:20:32;11.75;;;5.68;;
18265;SDS011;9259;48.194;16.322;2023-06-19T07:23:00;9.10;;;4.80;;
18265;SDS011;9259;48.194;16.322;2023-06-19T07:25:29;8.75;;;4.60;;
18265;SDS011;9259;48.194;16.322;2023-06-19T07:27:59;8.63;;;4.28;;
18265;SDS011;9259;48.194;16.322;2023-06-19T07:30:26;8.35;;;4.72;;
18265;SDS011;9259;48.194;16.322;2023-06-19T07:32:54;9.82;;;4.50;;
18265;SDS011;9259;48.194;16.322;2023-06-19T07:35:22;6.72;;;4.30;;
18265;SDS011;9259;48.194;16.322;2023-06-19T07:37:49;6.68;;;3.95;;
18265;SDS011;9259;48.194;16.322;2023-06-19T07:40:17;7.35;;;4.53;;
18265;SDS011;9259;48.194;16.322;2023-06-19T07:42:46;9.32;;;4.53;;
18265;SDS011;9259;48.194;16.322;2023-06-19T07:45:13;8.40;;;4.82;;
18265;SDS011;9259;48.194;16.322;2023-06-19T07:47:41;8.90;;;4.80;;
18265;SDS011;9259;48.194;16.322;2023-06-19T07:50:09;8.27;;;4.95;;
18265;SDS011;9259;48.194;16.322;2023-06-19T07:52:37;7.18;;;4.50;;
18265;SDS011;9259;48.194;16.322;2023-06-19T07:55:05;7.45;;;4.25;;
18265;SDS011;9259;48.194;16.322;2023-06-19T07:57:32;7.88;;;4.90;;
18265;SDS011;9259;48.194;16.322;2023-06-19T08:00:03;11.50;;;4.22;;
18265;SDS011;9259;48.194;16.322;2023-06-19T08:02:35;6.22;;;4.55;;
18265;SDS011;9259;48.194;16.322;2023-06-19T08:05:03;5.40;;;3.70;;
18265;SDS011;9259;48.194;16.322;2023-06-19T08:07:30;7.88;;;4.70;;
18265;SDS011;9259;48.194;16.322;2023-06-19T08:09:58;6.57;;;4.50;;
18265;SDS011;9259;48.194;16.322;2023-06-19T08:12:25;11.23;;;4.82;;
18265;SDS011;9259;48.194;16.322;2023-06-19T08:14:53;9.07;;;4.18;;
18265;SDS011;9259;48.194;16.322;2023-06-19T08:17:22;7.20;;;4.70;;
18265;SDS011;9259;48.194;16.322;2023-06-19T08:19:50;7.60;;;4.28;;
18265;SDS011;9259;48.194;16.322;2023-06-19T08:22:17;7.53;;;4.22;;
18265;SDS011;9259;48.194;16.322;2023-06-19T08:24:45;6.53;;;4.07;;
18265;SDS011;9259;48.194;16.322;2023-06-19T08:27:12;6.63;;;4.25;;
18265;SDS011;9259;48.194;16.322;2023-06-19T08:29:40;8.00;;;4.72;;
18265;SDS011;9259;48.194;16.322;2023-06-19T08:32:08;10.52;;;4.40;;
18265;SDS011;9259;48.194;16.322;2023-06-19T08:34:37;10.95;;;5.25;;
18265;SDS011;9259;48.194;16.322;2023-06-19T08:37:05;9.00;;;4.75;;
18265;SDS011;9259;48.194;16.322;2023-06-19T08:39:33;6.72;;;4.10;;
18265;SDS011;9259;48.194;16.322;2023-06-19T08:42:03;7.65;;;4.03;;
18265;SDS011;9259;48.194;16.322;2023-06-19T08:44:32;7.57;;;4.88;;
18265;SDS011;9259;48.194;16.322;2023-06-19T08:47:01;11.80;;;5.38;;
18265;SDS011;9259;48.194;16.322;2023-06-19T08:49:29;7.18;;;4.15;;
18265;SDS011;9259;48.194;16.322;2023-06-19T08:51:58;10.65;;;5.57;;
18265;SDS011;9259;48.194;16.322;2023-06-19T08:54:25;8.70;;;5.43;;
18265;SDS011;9259;48.194;16.322;2023-06-19T08:56:53;9.07;;;5.28;;
18265;SDS011;9259;48.194;16.322;2023-06-19T08:59:21;9.27;;;5.63;;
18265;SDS011;9259;48.194;16.322;2023-06-19T09:01:49;8.90;;;5.60;;
18265;SDS011;9259;48.194;16.322;2023-06-19T09:04:18;11.10;;;5.65;;
18265;SDS011;9259;48.194;16.322;2023-06-19T09:06:47;10.82;;;6.00;;
18265;SDS011;9259;48.194;16.322;2023-06-19T09:09:16;9.05;;;5.28;;
18265;SDS011;9259;48.194;16.322;2023-06-19T09:11:56;8.52;;;5.15;;
18265;SDS011;9259;48.194;16.322;2023-06-19T09:14:24;9.30;;;5.65;;
18265;SDS011;9259;48.194;16.322;2023-06-19T09:16:52;9.30;;;5.72;;
18265;SDS011;9259;48.194;16.322;2023-06-19T09:19:20;8.43;;;5.10;;
18265;SDS011;9259;48.194;16.322;2023-06-19T09:21:47;10.18;;;5.75;;
18265;SDS011;9259;48.194;16.322;2023-06-19T09:24:16;7.72;;;5.25;;
18265;SDS011;9259;48.194;16.322;2023-06-19T09:26:44;8.63;;;5.18;;
18265;SDS011;9259;48.194;16.322;2023-06-19T09:29:12;9.02;;;5.50;;
18265;SDS011;9259;48.194;16.322;2023-06-19T09:31:41;7.55;;;4.95;;
18265;SDS011;9259;48.194;16.322;2023-06-19T09:34:09;7.57;;;4.78;;
18265;SDS011;9259;48.194;16.322;2023-06-19T09:36:36;8.15;;;5.35;;
18265;SDS011;9259;48.194;16.322;2023-06-19T09:39:04;7.25;;;5.05;;
18265;SDS011;9259;48.194;16.322;2023-06-19T09:41:34;7.22;;;4.95;;
18265;SDS011;9259;48.194;16.322;2023-06-19T09:44:03;9.55;;;5.72;;
18265;SDS011;9259;48.194;16.322;2023-06-19T09:46:37;9.20;;;5.80;;
18265;SDS011;9259;48.194;16.322;2023-06-19T09:49:08;8.68;;;5.55;;
18265;SDS011;9259;48.194;16.322;2023-06-19T09:51:37;7.00;;;4.90;;
18265;SDS011;9259;48.194;16.322;2023-06-19T09:54:04;9.30;;;4.88;;
18265;SDS011;9259;48.194;16.322;2023-06-19T09:56:34;9.00;;;5.63;;
18265;SDS011;9259;48.194;16.322;2023-06-19T09:59:01;8.60;;;5.00;;
18265;SDS011;9259;48.194;16.322;2023-06-19T10:01:30;10.93;;;4.43;;
18265;SDS011;9259;48.194;16.322;2023-06-19T10:04:02;6.70;;;4.50;;
18265;SDS011;9259;48.194;16.322;2023-06-19T10:06:30;8.15;;;4.80;;
18265;SDS011;9259;48.194;16.322;2023-06-19T10:09:05;11.00;;;5.22;;
18265;SDS011;9259;48.194;16.322;2023-06-19T10:11:48;5.85;;;4.50;;
18265;SDS011;9259;48.194;16.322;2023-06-19T10:14:17;10.68;;;5.03;;
18265;SDS011;9259;48.194;16.322;2023-06-19T10:16:45;6.07;;;4.25;;
18265;SDS011;9259;48.194;16.322;2023-06-19T10:19:14;8.10;;;5.00;;
18265;SDS011;9259;48.194;16.322;2023-06-19T10:21:46;7.88;;;4.38;;
18265;SDS011;9259;48.194;16.322;2023-06-19T10:24:14;7.80;;;4.30;;
18265;SDS011;9259;48.194;16.322;2023-06-19T10:26:43;6.45;;;4.07;;
18265;SDS011;9259;48.194;16.322;2023-06-19T10:29:16;8.48;;;4.45;;
18265;SDS011;9259;48.194;16.322;2023-06-19T10:31:44;9.52;;;4.60;;
18265;SDS011;9259;48.194;16.322;2023-06-19T10:34:12;10.20;;;4.50;;
18265;SDS011;9259;48.194;16.322;2023-06-19T10:36:39;6.10;;;3.80;;
18265;SDS011;9259;48.194;16.322;2023-06-19T10:39:07;7.65;;;4.25;;
18265;SDS011;9259;48.194;16.322;2023-06-19T10:41:35;7.20;;;3.95;;
18265;SDS011;9259;48.194;16.322;2023-06-19T10:44:07;9.35;;;4.47;;
18265;SDS011;9259;48.194;16.322;2023-06-19T10:46:39;7.15;;;3.90;;
18265;SDS011;9259;48.194;16.322;2023-06-19T10:49:07;4.72;;;3.75;;
18265;SDS011;9259;48.194;16.322;2023-06-19T10:51:36;7.05;;;4.13;;
18265;SDS011;9259;48.194;16.322;2023-06-19T10:54:05;5.90;;;4.00;;
18265;SDS011;9259;48.194;16.322;2023-06-19T10:56:33;8.07;;;4.43;;
18265;SDS011;9259;48.194;16.322;2023-06-19T10:59:02;7.32;;;4.00;;
18265;SDS011;9259;48.194;16.322;2023-06-19T11:01:32;6.78;;;3.97;;
18265;SDS011;9259;48.194;16.322;2023-06-19T11:04:02;4.97;;;3.50;;
18265;SDS011;9259;48.194;16.322;2023-06-19T11:06:31;6.97;;;4.00;;
18265;SDS011;9259;48.194;16.322;2023-06-19T11:08:58;4.22;;;3.50;;
18265;SDS011;9259;48.194;16.322;2023-06-19T11:11:38;5.70;;;3.92;;
18265;SDS011;9259;48.194;16.322;2023-06-19T11:14:06;6.30;;;3.70;;
18265;SDS011;9259;48.194;16.322;2023-06-19T11:16:33;6.95;;;4.18;;
18265;SDS011;9259;48.194;16.322;2023-06-19T11:19:03;6.75;;;3.88;;
18265;SDS011;9259;48.194;16.322;2023-06-19T11:21:31;7.10;;;3.60;;
18265;SDS011;9259;48.194;16.322;2023-06-19T11:24:00;7.18;;;3.95;;
18265;SDS011;9259;48.194;16.322;2023-06-19T11:26:28;5.53;;;3.90;;
18265;SDS011;9259;48.194;16.322;2023-06-19T11:28:56;6.80;;;3.97;;
18265;SDS011;9259;48.194;16.322;2023-06-19T11:31:25;4.50;;;3.30;;
18265;SDS011;9259;48.194;16.322;2023-06-19T11:33:57;6.35;;;3.53;;
18265;SDS011;9259;48.194;16.322;2023-06-19T11:36:26;6.25;;;3.70;;
18265;SDS011;9259;48.194;16.322;2023-06-19T11:38:55;9.63;;;3.70;;
18265;SDS011;9259;48.194;16.322;2023-06-19T11:41:26;4.78;;;3.45;;
18265;SDS011;9259;48.194;16.322;2023-06-19T11:44:00;5.28;;;3.33;;
18265;SDS011;9259;48.194;16.322;2023-06-19T11:46:28;5.68;;;3.55;;
18265;SDS011;9259;48.194;16.322;2023-06-19T11:49:06;5.20;;;3.50;;
18265;SDS011;9259;48.194;16.322;2023-06-19T11:51:36;4.57;;;3.05;;
18265;SDS011;9259;48.194;16.322;2023-06-19T11:54:05;3.72;;;3.10;;
18265;SDS011;9259;48.194;16.322;2023-06-19T11:56:32;4.57;;;3.15;;
18265;SDS011;9259;48.194;16.322;2023-06-19T11:59:00;4.90;;;3.13;;
18265;SDS011;9259;48.194;16.322;2023-06-19T12:01:28;5.22;;;3.50;;
18265;SDS011;9259;48.194;16.322;2023-06-19T12:03:56;5.28;;;3.40;;
18265;SDS011;9259;48.194;16.322;2023-06-19T12:06:24;5.50;;;3.40;;
18265;SDS011;9259;48.194;16.322;2023-06-19T12:08:53;4.80;;;3.20;;
18265;SDS011;9259;48.194;16.322;2023-06-19T12:11:21;5.50;;;3.80;;
18265;SDS011;9259;48.194;16.322;2023-06-19T12:13:50;4.10;;;2.90;;
18265;SDS011;9259;48.194;16.322;2023-06-19T12:16:18;4.50;;;2.97;;
18265;SDS011;9259;48.194;16.322;2023-06-19T12:18:46;7.30;;;3.75;;
18265;SDS011;9259;48.194;16.322;2023-06-19T12:21:14;5.38;;;3.53;;
18265;SDS011;9259;48.194;16.322;2023-06-19T12:23:41;7.47;;;3.33;;
18265;SDS011;9259;48.194;16.322;2023-06-19T12:26:10;6.25;;;3.30;;
18265;SDS011;9259;48.194;16.322;2023-06-19T12:28:38;6.30;;;3.78;;
18265;SDS011;9259;48.194;16.322;2023-06-19T12:31:06;6.45;;;3.67;;
18265;SDS011;9259;48.194;16.322;2023-06-19T12:33:34;5.50;;;3.85;;
18265;SDS011;9259;48.194;16.322;2023-06-19T12:36:03;6.53;;;3.45;;
18265;SDS011;9259;48.194;16.322;2023-06-19T12:38:31;6.50;;;3.65;;
18265;SDS011;9259;48.194;16.322;2023-06-19T12:41:04;6.63;;;3.88;;
18265;SDS011;9259;48.194;16.322;2023-06-19T12:43:33;5.43;;;3.78;;
18265;SDS011;9259;48.194;16.322;2023-06-19T12:46:00;5.28;;;3.58;;
18265;SDS011;9259;48.194;16.322;2023-06-19T12:48:28;4.90;;;3.33;;
18265;SDS011;9259;48.194;16.322;2023-06-19T12:50:56;4.63;;;3.28;;
18265;SDS011;9259;48.194;16.322;2023-06-19T12:53:23;5.60;;;3.30;;
18265;SDS011;9259;48.194;16.322;2023-06-19T12:55:55;5.00;;;3.58;;
18265;SDS011;9259;48.194;16.322;2023-06-19T12:58:22;6.53;;;3.70;;
18265;SDS011;9259;48.194;16.322;2023-06-19T13:00:51;6.28;;;3.72;;
18265;SDS011;9259;48.194;16.322;2023-06-19T13:03:19;6.13;;;4.35;;
18265;SDS011;9259;48.194;16.322;2023-06-19T13:05:47;5.07;;;3.33;;
18265;SDS011;9259;48.194;16.322;2023-06-19T13:08:15;6.35;;;4.45;;
18265;SDS011;9259;48.194;16.322;2023-06-19T13:10:42;4.32;;;3.20;;
18265;SDS011;9259;48.194;16.322;2023-06-19T13:13:09;5.00;;;3.53;;
18265;SDS011;9259;48.194;16.322;2023-06-19T13:15:37;6.22;;;3.97;;
18265;SDS011;9259;48.194;16.322;2023-06-19T13:18:06;4.80;;;3.25;;
18265;SDS011;9259;48.194;16.322;2023-06-19T13:20:34;4.38;;;3.58;;
18265;SDS011;9259;48.194;16.322;2023-06-19T13:23:02;4.55;;;3.47;;
18265;SDS011;9259;48.194;16.322;2023-06-19T13:25:29;5.63;;;3.97;;
18265;SDS011;9259;48.194;16.322;2023-06-19T13:27:58;5.50;;;3.20;;
18265;SDS011;9259;48.194;16.322;2023-06-19T13:30:25;5.15;;;3.30;;
18265;SDS011;9259;48.194;16.322;2023-06-19T13:32:53;4.50;;;3.85;;
18265;SDS011;9259;48.194;16.322;2023-06-19T13:35:21;6.90;;;4.05;;
18265;SDS011;9259;48.194;16.322;2023-06-19T13:37:49;6.43;;;3.58;;
18265;SDS011;9259;48.194;16.322;2023-06-19T13:40:16;5.60;;;3.80;;
18265;SDS011;9259;48.194;16.322;2023-06-19T13:42:44;7.43;;;3.75;;
18265;SDS011;9259;48.194;16.322;2023-06-19T13:45:11;5.68;;;3.78;;
18265;SDS011;9259;48.194;16.322;2023-06-19T13:47:39;5.75;;;4.00;;
18265;SDS011;9259;48.194;16.322;2023-06-19T13:50:06;4.75;;;3.83;;
18265;SDS011;9259;48.194;16.322;2023-06-19T13:52:36;5.90;;;3.70;;
18265;SDS011;9259;48.194;16.322;2023-06-19T13:55:03;4.90;;;3.63;;
18265;SDS011;9259;48.194;16.322;2023-06-19T13:57:31;5.63;;;3.72;;
18265;SDS011;9259;48.194;16.322;2023-06-19T13:59:59;4.93;;;3.67;;
18265;SDS011;9259;48.194;16.322;2023-06-19T14:02:26;5.75;;;4.05;;
18265;SDS011;9259;48.194;16.322;2023-06-19T14:04:54;5.70;;;3.95;;
18265;SDS011;9259;48.194;16.322;2023-06-19T14:07:22;6.85;;;3.95;;
18265;SDS011;9259;48.194;16.322;2023-06-19T14:09:52;6.50;;;4.07;;
18265;SDS011;9259;48.194;16.322;2023-06-19T14:12:20;6.57;;;3.45;;
18265;SDS011;9259;48.194;16.322;2023-06-19T14:14:48;6.15;;;4.03;;
18265;SDS011;9259;48.194;16.322;2023-06-19T14:17:15;4.45;;;3.28;;
18265;SDS011;9259;48.194;16.322;2023-06-19T14:19:43;6.25;;;3.75;;
18265;SDS011;9259;48.194;16.322;2023-06-19T14:22:10;5.00;;;3.63;;
18265;SDS011;9259;48.194;16.322;2023-06-19T14:24:38;5.82;;;4.05;;
18265;SDS011;9259;48.194;16.322;2023-06-19T14:27:07;5.03;;;3.70;;
18265;SDS011;9259;48.194;16.322;2023-06-19T14:29:34;5.13;;;3.60;;
18265;SDS011;9259;48.194;16.322;2023-06-19T14:32:02;5.28;;;3.30;;
18265;SDS011;9259;48.194;16.322;2023-06-19T14:34:30;6.18;;;4.13;;
18265;SDS011;9259;48.194;16.322;2023-06-19T14:36:58;5.57;;;3.85;;
18265;SDS011;9259;48.194;16.322;2023-06-19T14:39:25;7.60;;;4.13;;
18265;SDS011;9259;48.194;16.322;2023-06-19T14:41:53;7.78;;;3.80;;
18265;SDS011;9259;48.194;16.322;2023-06-19T14:44:22;4.63;;;3.67;;
18265;SDS011;9259;48.194;16.322;2023-06-19T14:46:49;4.35;;;3.38;;
18265;SDS011;9259;48.194;16.322;2023-06-19T14:49:17;5.22;;;3.45;;
18265;SDS011;9259;48.194;16.322;2023-06-19T14:51:45;6.78;;;3.47;;